AUA106 LOWI-LOWW
Flight info
| Callsign | AUA106 |
|---|---|
| Flight time | 0h 50m |
| Altitude | 29000 |
| Route | RTT DCT NEMAL NEMAL2W |
| Aircraft | A319/M-SDE3FGHIRWY/LB1 |
Departure
| Time | 2026-04-23 12:41 |
|---|---|
| Airport | Innsbruck Airport (LOWI) |
Arrival
| Time | 2026-04-23 13:32 |
|---|---|
| Airport | Vienna International Airport (LOWW) |
| Time | Latitude | Longitude | Altitude | Speed | Heading |
|---|---|---|---|---|---|
| 2026-04-23 12:06 | 47.25826 | 11.35111 | 1901 ft | 0 kts | 171° |
| 2026-04-23 12:31 | 47.25827 | 11.35110 | 1904 ft | 2 kts | 171° |
| 2026-04-23 12:32 | 47.25852 | 11.35105 | 1894 ft | 4 kts | 171° |
| 2026-04-23 12:32 | 47.25872 | 11.35100 | 1890 ft | 4 kts | 192° |
| 2026-04-23 12:32 | 47.25886 | 11.35119 | 1890 ft | 3 kts | 260° |
| 2026-04-23 12:32 | 47.25889 | 11.35146 | 1897 ft | 0 kts | 261° |
| 2026-04-23 12:36 | 47.25888 | 11.35139 | 1900 ft | 1 kts | 261° |
| 2026-04-23 12:36 | 47.25887 | 11.35123 | 1890 ft | 2 kts | 261° |
| 2026-04-23 12:36 | 47.25884 | 11.35097 | 1900 ft | 3 kts | 261° |
| 2026-04-23 12:36 | 47.25880 | 11.35065 | 1901 ft | 4 kts | 261° |
| 2026-04-23 12:37 | 47.25875 | 11.35012 | 1901 ft | 7 kts | 261° |
| 2026-04-23 12:37 | 47.25859 | 11.34866 | 1904 ft | 19 kts | 261° |
| 2026-04-23 12:37 | 47.25837 | 11.34672 | 1904 ft | 19 kts | 261° |
| 2026-04-23 12:37 | 47.25816 | 11.34480 | 1899 ft | 19 kts | 261° |
| 2026-04-23 12:38 | 47.25795 | 11.34284 | 1900 ft | 19 kts | 261° |
| 2026-04-23 12:38 | 47.25775 | 11.34094 | 1898 ft | 15 kts | 262° |
| 2026-04-23 12:38 | 47.25783 | 11.33943 | 1899 ft | 15 kts | 295° |
| 2026-04-23 12:38 | 47.25825 | 11.33851 | 1904 ft | 5 kts | 307° |
| 2026-04-23 12:39 | 47.25847 | 11.33806 | 1896 ft | 6 kts | 307° |
| 2026-04-23 12:39 | 47.25877 | 11.33748 | 1897 ft | 8 kts | 307° |
| 2026-04-23 12:39 | 47.25918 | 11.33664 | 1901 ft | 13 kts | 305° |
| 2026-04-23 12:39 | 47.25924 | 11.33522 | 1898 ft | 15 kts | 261° |
| 2026-04-23 12:40 | 47.25908 | 11.33371 | 1893 ft | 15 kts | 261° |
| 2026-04-23 12:40 | 47.25879 | 11.33228 | 1904 ft | 14 kts | 224° |
| 2026-04-23 12:40 | 47.25836 | 11.33113 | 1904 ft | 13 kts | 271° |
| 2026-04-23 12:40 | 47.25882 | 11.33120 | 1901 ft | 10 kts | 70° |
| 2026-04-23 12:41 | 47.25915 | 11.33431 | 1901 ft | 66 kts | 81° |
| 2026-04-23 12:41 | 47.26024 | 11.34438 | 1893 ft | 131 kts | 81° |
| 2026-04-23 12:41 | 47.26181 | 11.35939 | 2217 ft | 153 kts | 82° |
| 2026-04-23 12:41 | 47.26374 | 11.37479 | 2940 ft | 153 kts | 77° |
| 2026-04-23 12:42 | 47.26585 | 11.39049 | 3495 ft | 165 kts | 77° |
| 2026-04-23 12:42 | 47.26822 | 11.40812 | 3880 ft | 184 kts | 78° |
| 2026-04-23 12:42 | 47.27075 | 11.42712 | 4440 ft | 192 kts | 78° |
| 2026-04-23 12:42 | 47.27345 | 11.44657 | 5115 ft | 195 kts | 74° |
| 2026-04-23 12:43 | 47.27699 | 11.46590 | 5870 ft | 196 kts | 72° |
| 2026-04-23 12:43 | 47.28071 | 11.48525 | 6575 ft | 198 kts | 72° |
| 2026-04-23 12:43 | 47.28450 | 11.50472 | 7337 ft | 197 kts | 72° |
| 2026-04-23 12:43 | 47.28826 | 11.52416 | 8094 ft | 197 kts | 71° |
| 2026-04-23 12:44 | 47.29196 | 11.54356 | 8864 ft | 197 kts | 71° |
| 2026-04-23 12:44 | 47.29566 | 11.56313 | 9615 ft | 199 kts | 71° |
| 2026-04-23 12:44 | 47.29945 | 11.58317 | 10260 ft | 206 kts | 71° |
| 2026-04-23 12:44 | 47.30333 | 11.60366 | 10947 ft | 209 kts | 71° |
| 2026-04-23 12:45 | 47.30724 | 11.62431 | 11663 ft | 210 kts | 70° |
| 2026-04-23 12:45 | 47.31146 | 11.64499 | 12387 ft | 210 kts | 62° |
| 2026-04-23 12:45 | 47.31908 | 11.66376 | 12838 ft | 224 kts | 52° |
| 2026-04-23 12:45 | 47.32856 | 11.68353 | 13174 ft | 248 kts | 51° |
| 2026-04-23 12:46 | 47.33905 | 11.70524 | 13485 ft | 272 kts | 51° |
| 2026-04-23 12:46 | 47.35045 | 11.72902 | 13772 ft | 296 kts | 52° |
| 2026-04-23 12:46 | 47.36268 | 11.75478 | 14140 ft | 314 kts | 52° |
| 2026-04-23 12:46 | 47.37531 | 11.78155 | 14770 ft | 321 kts | 52° |
| 2026-04-23 12:47 | 47.38814 | 11.80885 | 15500 ft | 325 kts | 53° |
| 2026-04-23 12:47 | 47.39995 | 11.83747 | 16190 ft | 331 kts | 62° |
| 2026-04-23 12:47 | 47.40950 | 11.86866 | 16915 ft | 335 kts | 63° |
| 2026-04-23 12:47 | 47.41902 | 11.90015 | 17672 ft | 337 kts | 63° |
| 2026-04-23 12:48 | 47.42859 | 11.93191 | 18389 ft | 341 kts | 63° |
| 2026-04-23 12:48 | 47.43834 | 11.96395 | 19056 ft | 343 kts | 63° |
| 2026-04-23 12:48 | 47.44851 | 11.99599 | 19675 ft | 346 kts | 63° |
| 2026-04-23 12:48 | 47.45894 | 12.02812 | 20286 ft | 349 kts | 62° |
| 2026-04-23 12:49 | 47.46951 | 12.06054 | 20898 ft | 352 kts | 62° |
| 2026-04-23 12:49 | 47.48016 | 12.09332 | 21493 ft | 355 kts | 62° |
| 2026-04-23 12:49 | 47.49085 | 12.12643 | 22098 ft | 358 kts | 62° |
| 2026-04-23 12:49 | 47.50162 | 12.15992 | 22655 ft | 363 kts | 62° |
| 2026-04-23 12:50 | 47.51247 | 12.19380 | 23230 ft | 366 kts | 62° |
| 2026-04-23 12:50 | 47.52336 | 12.22794 | 23833 ft | 369 kts | 62° |
| 2026-04-23 12:50 | 47.53433 | 12.26241 | 24309 ft | 371 kts | 63° |
| 2026-04-23 12:50 | 47.54534 | 12.29709 | 24773 ft | 373 kts | 63° |
| 2026-04-23 12:51 | 47.55639 | 12.33189 | 25244 ft | 374 kts | 63° |
| 2026-04-23 12:51 | 47.56747 | 12.36685 | 25748 ft | 376 kts | 63° |
| 2026-04-23 12:51 | 47.57856 | 12.40192 | 26249 ft | 377 kts | 63° |
| 2026-04-23 12:51 | 47.58969 | 12.43716 | 26735 ft | 378 kts | 63° |
| 2026-04-23 12:52 | 47.60084 | 12.47250 | 27200 ft | 380 kts | 63° |
| 2026-04-23 12:52 | 47.61204 | 12.50806 | 27655 ft | 382 kts | 63° |
| 2026-04-23 12:52 | 47.62331 | 12.54385 | 28117 ft | 383 kts | 63° |
| 2026-04-23 12:52 | 47.63462 | 12.57972 | 28577 ft | 385 kts | 63° |
| 2026-04-23 12:53 | 47.64598 | 12.61581 | 29026 ft | 387 kts | 63° |
| 2026-04-23 12:53 | 47.65735 | 12.65209 | 29272 ft | 388 kts | 63° |
| 2026-04-23 12:53 | 47.66848 | 12.68774 | 29316 ft | 372 kts | 63° |
| 2026-04-23 12:53 | 47.67912 | 12.72190 | 29305 ft | 358 kts | 63° |
| 2026-04-23 12:54 | 47.69982 | 12.78826 | 29304 ft | 352 kts | 63° |
| 2026-04-23 12:54 | 47.72038 | 12.85415 | 29303 ft | 351 kts | 62° |
| 2026-04-23 12:55 | 47.74080 | 12.91980 | 29301 ft | 350 kts | 62° |
| 2026-04-23 12:55 | 47.76112 | 12.98540 | 29301 ft | 349 kts | 63° |
| 2026-04-23 12:56 | 47.78136 | 13.05097 | 29296 ft | 349 kts | 63° |
| 2026-04-23 12:56 | 47.80154 | 13.11655 | 29295 ft | 348 kts | 63° |
| 2026-04-23 12:57 | 47.82173 | 13.18221 | 29296 ft | 349 kts | 63° |
| 2026-04-23 12:57 | 47.84188 | 13.24790 | 29315 ft | 349 kts | 62° |
| 2026-04-23 12:58 | 47.86184 | 13.31317 | 29304 ft | 348 kts | 62° |
| 2026-04-23 12:58 | 47.88181 | 13.37887 | 29304 ft | 348 kts | 62° |
| 2026-04-23 12:59 | 47.90172 | 13.44454 | 29305 ft | 347 kts | 62° |
| 2026-04-23 12:59 | 47.91693 | 13.51289 | 29292 ft | 354 kts | 77° |
| 2026-04-23 13:00 | 47.91775 | 13.58699 | 29284 ft | 358 kts | 84° |
| 2026-04-23 13:00 | 47.91738 | 13.66129 | 29281 ft | 358 kts | 84° |
| 2026-04-23 13:01 | 47.91712 | 13.72354 | 29283 ft | 359 kts | 84° |
| 2026-04-23 13:01 | 47.91671 | 13.79751 | 29273 ft | 359 kts | 84° |
| 2026-04-23 13:02 | 47.91628 | 13.87239 | 29257 ft | 359 kts | 84° |
| 2026-04-23 13:02 | 47.91576 | 13.94638 | 29253 ft | 359 kts | 84° |
| 2026-04-23 13:03 | 47.91516 | 14.02087 | 29244 ft | 360 kts | 84° |
| 2026-04-23 13:03 | 47.91455 | 14.09553 | 29247 ft | 360 kts | 84° |
| 2026-04-23 13:04 | 47.91389 | 14.17029 | 29264 ft | 361 kts | 84° |
| 2026-04-23 13:04 | 47.91322 | 14.24521 | 29249 ft | 361 kts | 84° |
| 2026-04-23 13:05 | 47.91246 | 14.32009 | 29221 ft | 361 kts | 84° |
| 2026-04-23 13:05 | 47.91202 | 14.35737 | 28934 ft | 357 kts | 85° |
| 2026-04-23 13:05 | 47.91157 | 14.39426 | 28650 ft | 355 kts | 84° |
| 2026-04-23 13:06 | 47.91069 | 14.46716 | 28033 ft | 347 kts | 84° |
| 2026-04-23 13:06 | 47.91026 | 14.50281 | 27640 ft | 343 kts | 84° |
| 2026-04-23 13:06 | 47.90984 | 14.53823 | 27247 ft | 340 kts | 84° |
| 2026-04-23 13:07 | 47.90942 | 14.57339 | 26820 ft | 338 kts | 84° |
| 2026-04-23 13:07 | 47.90899 | 14.60828 | 26414 ft | 335 kts | 84° |
| 2026-04-23 13:07 | 47.90856 | 14.64283 | 26004 ft | 332 kts | 85° |
| 2026-04-23 13:07 | 47.90810 | 14.67698 | 25592 ft | 327 kts | 85° |
| 2026-04-23 13:08 | 47.90762 | 14.71072 | 25182 ft | 325 kts | 85° |
| 2026-04-23 13:08 | 47.90714 | 14.74434 | 24749 ft | 323 kts | 85° |
| 2026-04-23 13:08 | 47.90666 | 14.77773 | 24332 ft | 322 kts | 85° |
| 2026-04-23 13:08 | 47.90619 | 14.81098 | 23910 ft | 320 kts | 85° |
| 2026-04-23 13:09 | 47.90571 | 14.84409 | 23429 ft | 319 kts | 85° |
| 2026-04-23 13:09 | 47.90523 | 14.87703 | 23012 ft | 317 kts | 85° |
| 2026-04-23 13:09 | 47.90472 | 14.90979 | 22605 ft | 315 kts | 85° |
| 2026-04-23 13:09 | 47.90419 | 14.94236 | 22198 ft | 314 kts | 85° |
| 2026-04-23 13:10 | 47.90367 | 14.97483 | 21814 ft | 313 kts | 86° |
| 2026-04-23 13:10 | 47.90314 | 15.00706 | 21404 ft | 309 kts | 86° |
| 2026-04-23 13:10 | 47.90261 | 15.03896 | 21018 ft | 307 kts | 85° |
| 2026-04-23 13:10 | 47.90209 | 15.07072 | 20627 ft | 306 kts | 85° |
| 2026-04-23 13:11 | 47.90154 | 15.10240 | 20242 ft | 305 kts | 85° |
| 2026-04-23 13:11 | 47.90097 | 15.13394 | 19864 ft | 304 kts | 85° |
| 2026-04-23 13:11 | 47.90040 | 15.16547 | 19485 ft | 304 kts | 85° |
| 2026-04-23 13:11 | 47.89984 | 15.19702 | 19099 ft | 305 kts | 86° |
| 2026-04-23 13:12 | 47.89928 | 15.22863 | 18715 ft | 306 kts | 86° |
| 2026-04-23 13:12 | 47.89871 | 15.26028 | 18314 ft | 306 kts | 85° |
| 2026-04-23 13:12 | 47.89810 | 15.29188 | 17924 ft | 304 kts | 86° |
| 2026-04-23 13:12 | 47.89748 | 15.32328 | 17557 ft | 303 kts | 86° |
| 2026-04-23 13:13 | 47.89684 | 15.35463 | 17186 ft | 303 kts | 85° |
| 2026-04-23 13:13 | 47.89622 | 15.38624 | 16981 ft | 309 kts | 86° |
| 2026-04-23 13:13 | 47.89564 | 15.41845 | 16788 ft | 311 kts | 84° |
| 2026-04-23 13:13 | 47.89503 | 15.45040 | 16583 ft | 308 kts | 84° |
| 2026-04-23 13:14 | 47.89379 | 15.48217 | 16369 ft | 309 kts | 92° |
| 2026-04-23 13:14 | 47.88906 | 15.51376 | 16178 ft | 313 kts | 98° |
| 2026-04-23 13:14 | 47.88377 | 15.54522 | 15967 ft | 312 kts | 97° |
| 2026-04-23 13:14 | 47.87849 | 15.57658 | 15758 ft | 311 kts | 96° |
| 2026-04-23 13:15 | 47.87325 | 15.60777 | 15550 ft | 311 kts | 97° |
| 2026-04-23 13:15 | 47.86803 | 15.63898 | 15352 ft | 311 kts | 97° |
| 2026-04-23 13:15 | 47.86283 | 15.67014 | 15145 ft | 309 kts | 97° |
| 2026-04-23 13:15 | 47.85763 | 15.70120 | 14951 ft | 309 kts | 96° |
| 2026-04-23 13:16 | 47.85244 | 15.73216 | 14733 ft | 308 kts | 96° |
| 2026-04-23 13:16 | 47.84724 | 15.76300 | 14534 ft | 307 kts | 98° |
| 2026-04-23 13:16 | 47.84204 | 15.79382 | 14327 ft | 306 kts | 96° |
| 2026-04-23 13:16 | 47.83686 | 15.82455 | 14141 ft | 306 kts | 98° |
| 2026-04-23 13:17 | 47.83166 | 15.85533 | 13923 ft | 306 kts | 98° |
| 2026-04-23 13:17 | 47.82646 | 15.88606 | 13714 ft | 306 kts | 98° |
| 2026-04-23 13:17 | 47.82125 | 15.91662 | 13500 ft | 304 kts | 98° |
| 2026-04-23 13:17 | 47.81604 | 15.94714 | 13304 ft | 304 kts | 98° |
| 2026-04-23 13:18 | 47.81084 | 15.97764 | 13109 ft | 304 kts | 98° |
| 2026-04-23 13:18 | 47.80563 | 16.00801 | 12908 ft | 302 kts | 98° |
| 2026-04-23 13:18 | 47.80044 | 16.03827 | 12710 ft | 302 kts | 98° |
| 2026-04-23 13:18 | 47.79524 | 16.06860 | 12502 ft | 302 kts | 98° |
| 2026-04-23 13:19 | 47.79004 | 16.09888 | 12302 ft | 302 kts | 98° |
| 2026-04-23 13:19 | 47.78486 | 16.12905 | 12100 ft | 301 kts | 98° |
| 2026-04-23 13:19 | 47.77967 | 16.15922 | 11855 ft | 300 kts | 98° |
| 2026-04-23 13:19 | 47.77522 | 16.18936 | 11603 ft | 295 kts | 89° |
| 2026-04-23 13:20 | 47.77548 | 16.21918 | 11184 ft | 283 kts | 74° |
| 2026-04-23 13:20 | 47.78081 | 16.24655 | 10780 ft | 272 kts | 59° |
| 2026-04-23 13:20 | 47.79028 | 16.27051 | 10542 ft | 267 kts | 46° |
| 2026-04-23 13:20 | 47.80257 | 16.29085 | 10299 ft | 264 kts | 41° |
| 2026-04-23 13:21 | 47.81517 | 16.31081 | 10060 ft | 265 kts | 41° |
| 2026-04-23 13:21 | 47.82750 | 16.33049 | 9877 ft | 262 kts | 41° |
| 2026-04-23 13:21 | 47.84006 | 16.35059 | 9737 ft | 262 kts | 41° |
| 2026-04-23 13:21 | 47.85244 | 16.37040 | 9603 ft | 261 kts | 41° |
| 2026-04-23 13:22 | 47.86476 | 16.39010 | 9468 ft | 257 kts | 41° |
| 2026-04-23 13:22 | 47.87644 | 16.40959 | 9330 ft | 249 kts | 47° |
| 2026-04-23 13:22 | 47.88489 | 16.43154 | 9197 ft | 246 kts | 60° |
| 2026-04-23 13:22 | 47.88980 | 16.45540 | 9059 ft | 234 kts | 66° |
| 2026-04-23 13:23 | 47.89399 | 16.47821 | 8736 ft | 225 kts | 66° |
| 2026-04-23 13:23 | 47.89692 | 16.50120 | 8212 ft | 232 kts | 83° |
| 2026-04-23 13:23 | 47.89326 | 16.52509 | 7719 ft | 245 kts | 111° |
| 2026-04-23 13:23 | 47.88238 | 16.54448 | 7515 ft | 243 kts | 141° |
| 2026-04-23 13:24 | 47.86736 | 16.55497 | 7222 ft | 238 kts | 165° |
| 2026-04-23 13:24 | 47.85213 | 16.56400 | 6811 ft | 235 kts | 142° |
| 2026-04-23 13:24 | 47.84116 | 16.58125 | 6404 ft | 227 kts | 114° |
| 2026-04-23 13:24 | 47.83568 | 16.60258 | 6002 ft | 216 kts | 92° |
| 2026-04-23 13:25 | 47.83557 | 16.62429 | 5587 ft | 206 kts | 70° |
| 2026-04-23 13:25 | 47.83928 | 16.64459 | 5237 ft | 203 kts | 65° |
| 2026-04-23 13:25 | 47.84427 | 16.66388 | 4957 ft | 194 kts | 46° |
| 2026-04-23 13:25 | 47.85367 | 16.67696 | 4660 ft | 180 kts | 20° |
| 2026-04-23 13:26 | 47.86524 | 16.68224 | 4390 ft | 171 kts | 359° |
| 2026-04-23 13:26 | 47.87678 | 16.68043 | 4097 ft | 166 kts | 341° |
| 2026-04-23 13:26 | 47.88788 | 16.67577 | 3839 ft | 165 kts | 341° |
| 2026-04-23 13:26 | 47.89895 | 16.67113 | 3585 ft | 165 kts | 341° |
| 2026-04-23 13:27 | 47.90991 | 16.66655 | 3381 ft | 162 kts | 341° |
| 2026-04-23 13:27 | 47.92072 | 16.66202 | 3153 ft | 159 kts | 341° |
| 2026-04-23 13:27 | 47.93138 | 16.65754 | 3020 ft | 160 kts | 341° |
| 2026-04-23 13:27 | 47.94220 | 16.65299 | 3006 ft | 164 kts | 341° |
| 2026-04-23 13:28 | 47.95326 | 16.64835 | 3009 ft | 165 kts | 341° |
| 2026-04-23 13:28 | 47.96429 | 16.64372 | 3014 ft | 164 kts | 341° |
| 2026-04-23 13:28 | 47.97523 | 16.63912 | 2898 ft | 163 kts | 341° |
| 2026-04-23 13:28 | 47.98609 | 16.63456 | 2744 ft | 160 kts | 341° |
| 2026-04-23 13:29 | 47.99656 | 16.63016 | 2517 ft | 151 kts | 341° |
| 2026-04-23 13:29 | 48.00627 | 16.62609 | 2320 ft | 138 kts | 341° |
| 2026-04-23 13:29 | 48.01509 | 16.62238 | 2151 ft | 127 kts | 341° |
| 2026-04-23 13:29 | 48.02340 | 16.61887 | 1992 ft | 120 kts | 340° |
| 2026-04-23 13:30 | 48.03144 | 16.61548 | 1827 ft | 119 kts | 340° |
| 2026-04-23 13:30 | 48.03960 | 16.61204 | 1659 ft | 122 kts | 342° |
| 2026-04-23 13:30 | 48.04759 | 16.60867 | 1498 ft | 117 kts | 342° |
| 2026-04-23 13:30 | 48.05552 | 16.60532 | 1330 ft | 119 kts | 339° |
| 2026-04-23 13:31 | 48.06360 | 16.60191 | 1160 ft | 121 kts | 339° |
| 2026-04-23 13:31 | 48.07157 | 16.59855 | 1005 ft | 119 kts | 339° |
| 2026-04-23 13:31 | 48.07954 | 16.59519 | 819 ft | 116 kts | 338° |
| 2026-04-23 13:31 | 48.08742 | 16.59186 | 669 ft | 119 kts | 340° |
| 2026-04-23 13:32 | 48.09472 | 16.58866 | 613 ft | 91 kts | 343° |
| 2026-04-23 13:32 | 48.09918 | 16.58693 | 620 ft | 39 kts | 345° |
| 2026-04-23 13:32 | 48.10047 | 16.58529 | 613 ft | 19 kts | 302° |
| 2026-04-23 13:32 | 48.10098 | 16.58390 | 619 ft | 12 kts | 298° |
| 2026-04-23 13:33 | 48.10148 | 16.58314 | 617 ft | 11 kts | 333° |
| 2026-04-23 13:33 | 48.10227 | 16.58275 | 616 ft | 13 kts | 346° |
| 2026-04-23 13:33 | 48.10327 | 16.58237 | 612 ft | 17 kts | 344° |
| 2026-04-23 13:33 | 48.10456 | 16.58182 | 617 ft | 21 kts | 344° |
| 2026-04-23 13:34 | 48.10591 | 16.58124 | 608 ft | 20 kts | 343° |
| 2026-04-23 13:34 | 48.10720 | 16.58069 | 615 ft | 19 kts | 344° |
| 2026-04-23 13:34 | 48.10843 | 16.58016 | 612 ft | 18 kts | 344° |
| 2026-04-23 13:34 | 48.10961 | 16.57967 | 611 ft | 17 kts | 344° |
| 2026-04-23 13:35 | 48.11073 | 16.57915 | 611 ft | 17 kts | 333° |
| 2026-04-23 13:35 | 48.11138 | 16.57780 | 612 ft | 16 kts | 295° |
| 2026-04-23 13:35 | 48.11186 | 16.57625 | 620 ft | 17 kts | 295° |
| 2026-04-23 13:35 | 48.11237 | 16.57469 | 613 ft | 17 kts | 296° |
| 2026-04-23 13:36 | 48.11288 | 16.57313 | 620 ft | 17 kts | 296° |
| 2026-04-23 13:36 | 48.11341 | 16.57155 | 609 ft | 17 kts | 296° |
| 2026-04-23 13:36 | 48.11393 | 16.56995 | 617 ft | 17 kts | 296° |
| 2026-04-23 13:36 | 48.11447 | 16.56835 | 618 ft | 17 kts | 296° |
| 2026-04-23 13:37 | 48.11500 | 16.56674 | 610 ft | 17 kts | 294° |
| 2026-04-23 13:37 | 48.11549 | 16.56510 | 618 ft | 17 kts | 295° |
| 2026-04-23 13:37 | 48.11600 | 16.56345 | 610 ft | 18 kts | 296° |
| 2026-04-23 13:37 | 48.11655 | 16.56181 | 608 ft | 18 kts | 297° |
| 2026-04-23 13:38 | 48.11711 | 16.56018 | 612 ft | 18 kts | 297° |
| 2026-04-23 13:38 | 48.11765 | 16.55858 | 614 ft | 17 kts | 297° |
| 2026-04-23 13:38 | 48.11816 | 16.55694 | 609 ft | 17 kts | 295° |
| 2026-04-23 13:38 | 48.11864 | 16.55540 | 620 ft | 16 kts | 295° |
| 2026-04-23 13:39 | 48.11933 | 16.55453 | 609 ft | 14 kts | 13° |
| 2026-04-23 13:39 | 48.12023 | 16.55515 | 614 ft | 15 kts | 26° |
| 2026-04-23 13:39 | 48.12115 | 16.55582 | 613 ft | 13 kts | 27° |
| 2026-04-23 13:39 | 48.12136 | 16.55643 | 609 ft | 1 kts | 113° |
| 2026-04-23 13:40 | 48.12129 | 16.55665 | 614 ft | 2 kts | 115° |
| 2026-04-23 13:40 | 48.12122 | 16.55687 | 610 ft | 3 kts | 116° |
| 2026-04-23 13:40 | 48.12120 | 16.55693 | 616 ft | 0 kts | 116° |